createdAt,value
2023-03-05T00:01:24.282Z,5.10
2023-03-05T00:03:53.210Z,5.10
2023-03-05T00:06:21.870Z,5.00
2023-03-05T00:08:51.483Z,5.00
2023-03-05T00:11:21.494Z,5.00
2023-03-05T00:13:52.148Z,5.00
2023-03-05T00:16:20.096Z,5.00
2023-03-05T00:18:48.351Z,5.00
2023-03-05T00:21:22.005Z,5.00
2023-03-05T00:23:51.040Z,5.00
2023-03-05T00:26:21.641Z,5.00
2023-03-05T00:28:50.184Z,5.00
2023-03-05T00:31:18.857Z,5.00
2023-03-05T00:33:46.815Z,5.00
2023-03-05T00:36:14.705Z,5.00
2023-03-05T00:38:42.533Z,5.00
2023-03-05T00:41:10.366Z,4.90
2023-03-05T00:43:39.852Z,5.00
2023-03-05T00:46:07.788Z,5.00
2023-03-05T00:48:35.671Z,5.00
2023-03-05T00:51:03.623Z,5.00
2023-03-05T00:53:31.784Z,5.00
2023-03-05T00:56:00.110Z,5.00
2023-03-05T00:58:28.119Z,5.00
2023-03-05T01:01:01.524Z,5.10
2023-03-05T01:03:29.732Z,5.00
2023-03-05T01:05:57.693Z,5.00
2023-03-05T01:08:25.934Z,5.00
2023-03-05T01:10:54.338Z,5.00
2023-03-05T01:13:22.378Z,5.00
2023-03-05T01:15:51.065Z,5.00
2023-03-05T01:18:20.935Z,5.00
2023-03-05T01:20:49.164Z,5.00
2023-03-05T01:23:17.080Z,5.10
2023-03-05T01:25:45.006Z,5.00
2023-03-05T01:28:13.118Z,5.00
2023-03-05T01:30:41.048Z,5.00
2023-03-05T01:33:08.927Z,5.00
2023-03-05T01:35:38.158Z,5.00
2023-03-05T01:38:06.003Z,5.00
2023-03-05T01:40:33.801Z,5.00
2023-03-05T01:43:08.155Z,4.90
2023-03-05T01:45:36.060Z,4.90
2023-03-05T01:48:04.233Z,4.80
2023-03-05T01:50:32.322Z,4.80
2023-03-05T01:53:06.344Z,4.70
2023-03-05T01:55:37.171Z,4.70
2023-03-05T01:58:07.542Z,4.60
2023-03-05T02:00:38.737Z,4.70
2023-03-05T02:03:09.985Z,4.60
2023-03-05T02:05:39.091Z,4.60
2023-03-05T02:08:13.613Z,4.60
2023-03-05T02:10:45.079Z,4.60
2023-03-05T02:13:16.433Z,4.70
2023-03-05T02:15:44.626Z,4.70
2023-03-05T02:18:12.879Z,4.70
2023-03-05T02:20:46.274Z,4.70
2023-03-05T02:23:16.566Z,4.80
2023-03-05T02:25:44.433Z,4.80
2023-03-05T02:28:18.956Z,4.80
2023-03-05T02:30:46.921Z,4.80
2023-03-05T02:33:15.649Z,4.80
2023-03-05T02:35:44.407Z,4.80
2023-03-05T02:38:12.799Z,4.80
2023-03-05T02:40:42.241Z,4.80
2023-03-05T02:43:10.644Z,4.90
2023-03-05T02:45:38.891Z,4.80
2023-03-05T02:48:07.368Z,4.80
2023-03-05T02:50:36.095Z,4.80
2023-03-05T02:53:04.386Z,4.80
2023-03-05T02:55:32.310Z,4.80
2023-03-05T02:58:01.862Z,4.80
2023-03-05T03:00:30.122Z,4.70
2023-03-05T03:02:58.006Z,4.70
2023-03-05T03:05:25.946Z,4.60
2023-03-05T03:07:56.569Z,4.60
2023-03-05T03:10:24.582Z,4.70
2023-03-05T03:12:53.460Z,4.70
2023-03-05T03:15:23.174Z,4.70
2023-03-05T03:17:51.121Z,4.70
2023-03-05T03:20:20.228Z,4.60
2023-03-05T03:22:48.560Z,4.60
2023-03-05T03:25:17.697Z,4.60
2023-03-05T03:27:45.729Z,4.60
2023-03-05T03:30:15.308Z,4.60
2023-03-05T03:32:44.848Z,4.60
2023-03-05T03:35:14.031Z,4.60
2023-03-05T03:37:41.978Z,4.60
2023-03-05T03:40:12.159Z,4.60
2023-03-05T03:42:40.094Z,4.70
2023-03-05T03:45:09.483Z,4.70
2023-03-05T03:47:37.822Z,4.70
2023-03-05T03:50:08.020Z,4.70
2023-03-05T03:52:35.921Z,4.70
2023-03-05T03:55:24.663Z,4.70
2023-03-05T03:57:52.511Z,4.70
2023-03-05T04:00:21.030Z,4.70
2023-03-05T04:02:48.954Z,4.70
2023-03-05T04:05:18.234Z,4.70
2023-03-05T04:07:46.353Z,4.70
2023-03-05T04:10:14.454Z,4.70
2023-03-05T04:12:43.502Z,4.70
2023-03-05T04:15:11.975Z,4.70
2023-03-05T04:17:39.905Z,4.70
2023-03-05T04:20:10.338Z,4.70
2023-03-05T04:22:39.910Z,4.70
2023-03-05T04:25:09.201Z,4.70
2023-03-05T04:27:38.121Z,4.70
2023-03-05T04:30:07.196Z,4.70
2023-03-05T04:32:35.124Z,4.70
2023-03-05T04:35:02.966Z,4.70
2023-03-05T04:37:30.878Z,4.70
2023-03-05T04:40:00.211Z,4.70
2023-03-05T04:42:28.108Z,4.70
2023-03-05T04:44:56.060Z,4.70
2023-03-05T04:47:24.211Z,4.70
2023-03-05T04:49:52.217Z,4.70
2023-03-05T04:52:20.407Z,4.70
2023-03-05T04:54:48.377Z,4.70
2023-03-05T04:57:17.638Z,4.70
2023-03-05T04:59:45.459Z,4.70
2023-03-05T05:02:13.401Z,4.70
2023-03-05T05:04:44.963Z,4.60
2023-03-05T05:07:13.009Z,4.60
2023-03-05T05:09:41.446Z,4.60
2023-03-05T05:12:10.525Z,4.60
2023-03-05T05:14:40.404Z,4.60
2023-03-05T05:17:08.241Z,4.50
2023-03-05T05:19:36.604Z,4.50
2023-03-05T05:22:04.453Z,4.50
2023-03-05T05:24:32.414Z,4.40
2023-03-05T05:27:00.315Z,4.50
2023-03-05T05:29:28.237Z,4.50
2023-03-05T05:31:57.608Z,4.50
2023-03-05T05:34:26.057Z,4.50
2023-03-05T05:36:53.912Z,4.50
2023-03-05T05:39:21.729Z,4.50
2023-03-05T05:41:52.067Z,4.50
2023-03-05T05:44:20.394Z,4.50
2023-03-05T05:46:48.362Z,4.50
2023-03-05T05:49:17.534Z,4.50
2023-03-05T05:51:45.412Z,4.40
2023-03-05T05:54:15.023Z,4.40
2023-03-05T05:56:43.348Z,4.40
2023-03-05T05:59:12.097Z,4.40
2023-03-05T06:01:40.039Z,4.50
2023-03-05T06:04:10.224Z,4.50
2023-03-05T06:06:39.483Z,4.50
2023-03-05T06:09:07.466Z,4.40
2023-03-05T06:11:35.632Z,4.50
2023-03-05T06:14:04.032Z,4.50
2023-03-05T06:16:32.258Z,4.50
2023-03-05T06:19:00.210Z,4.50
2023-03-05T06:21:28.091Z,4.50
2023-03-05T06:23:58.668Z,4.50
2023-03-05T06:26:28.169Z,4.50
2023-03-05T06:28:56.186Z,4.50
2023-03-05T06:31:26.285Z,4.50
2023-03-05T06:33:56.196Z,4.40
2023-03-05T06:36:26.031Z,4.40
2023-03-05T06:38:55.058Z,4.50
2023-03-05T06:41:26.730Z,4.50
2023-03-05T06:43:55.706Z,4.50
2023-03-05T06:46:26.811Z,4.50
2023-03-05T06:48:56.998Z,4.60
2023-03-05T06:51:27.168Z,4.60
2023-03-05T06:53:56.453Z,4.60
2023-03-05T06:56:25.718Z,4.60
2023-03-05T06:58:54.295Z,4.60
2023-03-05T07:01:23.567Z,4.60
2023-03-05T07:03:52.712Z,4.70
2023-03-05T07:06:20.959Z,4.70
2023-03-05T07:08:49.182Z,4.60
2023-03-05T07:11:19.368Z,4.70
2023-03-05T07:13:49.026Z,4.70
2023-03-05T07:16:19.233Z,4.70
2023-03-05T07:18:47.623Z,4.70
2023-03-05T07:21:18.553Z,4.70
2023-03-05T07:23:46.637Z,4.70
2023-03-05T07:26:14.756Z,4.80
2023-03-05T07:28:43.295Z,4.80
2023-03-05T07:31:16.406Z,4.90
2023-03-05T07:33:44.310Z,5.00
2023-03-05T07:36:13.171Z,5.00
2023-03-05T07:38:41.213Z,5.10
2023-03-05T07:41:11.226Z,5.20
2023-03-05T07:43:39.659Z,5.20
2023-03-05T07:46:09.536Z,5.30
2023-03-05T07:48:39.833Z,5.30
2023-03-05T07:51:09.589Z,5.30
2023-03-05T07:53:37.725Z,5.40
2023-03-05T07:56:06.456Z,5.40
2023-03-05T07:58:34.386Z,5.50
2023-03-05T08:01:02.238Z,5.50
2023-03-05T08:03:30.134Z,5.60
2023-03-05T08:05:59.378Z,5.60
2023-03-05T08:08:27.466Z,5.60
2023-03-05T08:10:55.333Z,5.60
2023-03-05T08:13:23.255Z,5.60
2023-03-05T08:15:51.211Z,5.70
2023-03-05T08:18:19.521Z,5.70
2023-03-05T08:20:47.365Z,5.80
2023-03-05T08:23:16.952Z,5.80
2023-03-05T08:25:44.880Z,5.90
2023-03-05T08:28:13.136Z,6.00
2023-03-05T08:30:41.988Z,6.00
2023-03-05T08:33:09.907Z,6.00
2023-03-05T08:35:37.883Z,5.90
2023-03-05T08:38:06.658Z,6.00
2023-03-05T08:40:36.179Z,5.90
2023-03-05T08:43:05.781Z,5.90
2023-03-05T08:45:33.708Z,5.80
2023-03-05T08:48:01.694Z,5.80
2023-03-05T08:50:29.572Z,5.90
2023-03-05T08:52:57.842Z,5.80
2023-03-05T08:55:25.689Z,5.90
2023-03-05T08:57:55.045Z,5.90
2023-03-05T09:00:23.482Z,5.90
2023-03-05T09:02:51.607Z,6.00
2023-03-05T09:05:19.786Z,6.00
2023-03-05T09:07:47.771Z,6.00
2023-03-05T09:10:18.261Z,6.00
2023-03-05T09:12:46.188Z,6.00
2023-03-05T09:15:15.558Z,6.00
2023-03-05T09:17:43.573Z,6.00
2023-03-05T09:20:13.555Z,6.00
2023-03-05T09:22:41.518Z,6.00
2023-03-05T09:25:12.687Z,6.00
2023-03-05T09:27:40.658Z,6.00
2023-03-05T09:30:10.038Z,5.90
2023-03-05T09:32:39.306Z,5.90
2023-03-05T09:35:08.446Z,5.90
2023-03-05T09:37:36.586Z,5.90
2023-03-05T09:40:05.166Z,5.90
2023-03-05T09:42:54.950Z,5.90
2023-03-05T09:45:27.373Z,5.80
2023-03-05T09:48:07.434Z,5.90
2023-03-05T09:50:39.327Z,5.90
2023-03-05T09:53:18.858Z,5.90
2023-03-05T09:55:49.962Z,5.90
2023-03-05T09:58:21.322Z,5.90
2023-03-05T10:00:53.964Z,5.90
2023-03-05T10:03:28.261Z,6.00
2023-03-05T10:06:05.153Z,6.10
2023-03-05T10:08:46.224Z,6.10
2023-03-05T10:11:27.867Z,6.10
2023-03-05T10:13:56.156Z,6.20
2023-03-05T10:16:40.478Z,6.30
2023-03-05T10:19:19.097Z,6.30
2023-03-05T10:21:53.761Z,6.30
2023-03-05T10:24:33.939Z,6.30
2023-03-05T10:27:09.066Z,6.20
2023-03-05T10:29:50.079Z,6.30
2023-03-05T10:32:31.114Z,6.30
2023-03-05T10:35:50.269Z,6.40
2023-03-05T10:38:38.024Z,6.50
2023-03-05T10:41:17.985Z,6.60
2023-03-05T10:43:53.380Z,6.70
2023-03-05T10:46:32.650Z,6.60
2023-03-05T10:49:06.237Z,6.60
2023-03-05T10:51:39.305Z,6.70
2023-03-05T10:54:16.161Z,6.80
2023-03-05T10:56:44.041Z,6.80
2023-03-05T10:59:12.044Z,6.70
2023-03-05T11:01:39.966Z,6.70
2023-03-05T11:04:10.710Z,6.80
2023-03-05T11:06:41.813Z,6.90
2023-03-05T11:09:28.389Z,7.00
2023-03-05T11:12:13.734Z,7.00
2023-03-05T11:14:44.400Z,7.00
2023-03-05T11:17:30.992Z,7.00
2023-03-05T11:20:19.372Z,7.10
2023-03-05T11:23:04.690Z,7.20
2023-03-05T11:25:33.787Z,7.20
2023-03-05T11:28:03.094Z,7.30
2023-03-05T11:30:33.602Z,7.30
2023-03-05T11:33:15.388Z,7.30
2023-03-05T11:35:44.927Z,7.40
2023-03-05T11:38:20.991Z,7.40
2023-03-05T11:40:50.285Z,7.30
2023-03-05T11:43:20.162Z,7.30
2023-03-05T11:45:50.358Z,7.30
2023-03-05T11:48:26.062Z,7.20
2023-03-05T11:50:58.788Z,7.20
2023-03-05T11:53:29.702Z,7.10
2023-03-05T11:56:00.897Z,7.10
2023-03-05T11:58:33.510Z,7.00
2023-03-05T12:01:02.645Z,6.90
2023-03-05T12:03:33.871Z,6.80
2023-03-05T12:06:08.093Z,6.80
2023-03-05T12:08:42.847Z,6.70
2023-03-05T12:11:19.108Z,6.70
2023-03-05T12:13:49.919Z,6.70
2023-03-05T12:16:26.425Z,6.70
2023-03-05T12:19:02.970Z,6.70
2023-03-05T12:21:36.816Z,6.70
2023-03-05T12:24:37.521Z,6.70
2023-03-05T12:27:16.812Z,6.80
2023-03-05T12:29:50.702Z,6.80
2023-03-05T12:33:02.156Z,6.70
2023-03-05T12:35:39.878Z,6.70
2023-03-05T12:38:32.728Z,6.70
2023-03-05T12:41:44.190Z,6.60
2023-03-05T12:44:35.611Z,6.60
2023-03-05T12:47:23.390Z,6.60
2023-03-05T12:49:51.774Z,6.50
2023-03-05T12:52:27.532Z,6.50
2023-03-05T12:55:17.760Z,6.50
2023-03-05T12:57:47.863Z,6.50
2023-03-05T13:00:23.658Z,6.40
2023-03-05T13:02:57.991Z,6.40
2023-03-05T13:05:28.873Z,6.40
2023-03-05T13:08:14.852Z,6.40
2023-03-05T13:10:44.854Z,6.40
2023-03-05T13:13:15.833Z,6.30
2023-03-05T13:15:48.865Z,6.30
2023-03-05T13:18:21.139Z,6.30
2023-03-05T13:20:52.129Z,6.30
2023-03-05T13:23:24.826Z,6.30
2023-03-05T13:26:02.228Z,6.30
2023-03-05T13:28:31.174Z,6.30
2023-03-05T13:31:03.255Z,6.30
2023-03-05T13:33:33.433Z,6.40
2023-03-05T13:36:01.813Z,6.40
2023-03-05T13:38:34.767Z,6.40
2023-03-05T13:41:21.279Z,6.30
2023-03-05T13:43:51.760Z,6.30
2023-03-05T13:46:30.507Z,6.40
2023-03-05T13:48:59.494Z,6.50
2023-03-05T13:51:43.334Z,6.50
2023-03-05T13:54:15.742Z,6.50
2023-03-05T13:56:55.600Z,6.50
2023-03-05T13:59:24.909Z,6.60
2023-03-05T14:01:55.291Z,6.60
2023-03-05T14:04:25.649Z,6.60
2023-03-05T14:06:58.213Z,6.60
2023-03-05T14:09:27.804Z,6.60
2023-03-05T14:12:03.687Z,6.60
2023-03-05T14:14:35.476Z,6.60
2023-03-05T14:17:30.140Z,6.60
2023-03-05T14:20:09.571Z,6.50
2023-03-05T14:22:39.123Z,6.50
2023-03-05T14:25:25.999Z,6.50
2023-03-05T14:27:54.192Z,6.40
2023-03-05T14:30:25.143Z,6.40
2023-03-05T14:32:56.199Z,6.40
2023-03-05T14:35:26.511Z,6.30
2023-03-05T14:37:56.696Z,6.30
2023-03-05T14:40:29.007Z,6.30
2023-03-05T14:42:57.694Z,6.30
2023-03-05T14:45:27.619Z,6.30
2023-03-05T14:48:00.209Z,6.40
2023-03-05T14:50:30.078Z,6.40
2023-03-05T14:53:00.812Z,6.50
2023-03-05T14:55:31.983Z,6.60
2023-03-05T14:58:04.275Z,6.60
2023-03-05T15:00:32.724Z,6.60
2023-03-05T15:03:01.996Z,6.60
2023-03-05T15:05:30.086Z,6.70
2023-03-05T15:07:58.290Z,6.70
2023-03-05T15:10:27.577Z,6.80
2023-03-05T15:12:55.484Z,6.80
2023-03-05T15:15:23.975Z,6.90
2023-03-05T15:17:54.879Z,6.90
2023-03-05T15:20:26.046Z,6.90
2023-03-05T15:22:54.163Z,6.90
2023-03-05T15:25:24.332Z,6.90
2023-03-05T15:27:52.426Z,6.90
2023-03-05T15:30:24.094Z,6.90
2023-03-05T15:32:52.329Z,6.90
2023-03-05T15:35:20.411Z,6.90
2023-03-05T15:37:49.613Z,6.90
2023-03-05T15:40:17.647Z,7.00
2023-03-05T15:42:45.450Z,7.00
2023-03-05T15:45:13.288Z,7.00
2023-03-05T15:47:41.119Z,7.00
2023-03-05T15:50:10.698Z,7.00
2023-03-05T15:52:38.510Z,7.00
2023-03-05T15:55:09.164Z,7.00
2023-03-05T15:57:38.451Z,7.00
2023-03-05T16:00:08.235Z,7.00
2023-03-05T16:02:36.420Z,7.00
2023-03-05T16:05:04.584Z,7.00
2023-03-05T16:07:33.466Z,7.00
2023-03-05T16:10:01.382Z,6.90
2023-03-05T16:12:37.429Z,6.90
2023-03-05T16:15:06.482Z,6.90
2023-03-05T16:17:35.319Z,6.90
2023-03-05T16:20:03.373Z,6.90
2023-03-05T16:22:31.608Z,6.90
2023-03-05T16:25:01.232Z,6.80
2023-03-05T16:27:31.193Z,6.80
2023-03-05T16:29:59.027Z,6.70
2023-03-05T16:32:27.147Z,6.80
2023-03-05T16:34:55.004Z,6.70
2023-03-05T16:37:24.888Z,6.60
2023-03-05T16:39:52.815Z,6.50
2023-03-05T16:42:20.707Z,6.50
2023-03-05T16:44:49.933Z,6.50
2023-03-05T16:47:17.805Z,6.40
2023-03-05T16:49:45.867Z,6.40
2023-03-05T16:52:19.181Z,6.40
2023-03-05T16:54:48.212Z,6.40
2023-03-05T16:57:16.556Z,6.40
2023-03-05T16:59:44.562Z,6.30
2023-03-05T17:02:15.445Z,6.30
2023-03-05T17:04:43.484Z,6.20
2023-03-05T17:07:11.642Z,6.10
2023-03-05T17:09:39.743Z,6.10
2023-03-05T17:12:08.567Z,6.00
2023-03-05T17:14:36.467Z,6.00
2023-03-05T17:17:04.318Z,6.00
2023-03-05T17:19:33.546Z,6.00
2023-03-05T17:22:01.492Z,6.00
2023-03-05T17:24:30.074Z,6.00
2023-03-05T17:26:57.953Z,6.00
2023-03-05T17:29:26.082Z,6.00
2023-03-05T17:31:54.002Z,6.00
2023-03-05T17:34:33.181Z,5.90
2023-03-05T17:37:06.073Z,6.00
2023-03-05T17:39:34.606Z,6.00
2023-03-05T17:42:02.572Z,6.00
2023-03-05T17:44:30.723Z,5.90
2023-03-05T17:46:58.905Z,5.90
2023-03-05T17:49:26.927Z,5.80
2023-03-05T17:51:54.917Z,5.80
2023-03-05T17:54:26.704Z,5.80
2023-03-05T17:56:55.714Z,5.80
2023-03-05T17:59:24.241Z,5.80
2023-03-05T18:01:52.362Z,5.80
2023-03-05T18:04:20.526Z,5.80
2023-03-05T18:06:48.404Z,5.80
2023-03-05T18:09:16.227Z,5.80
2023-03-05T18:11:45.568Z,5.90
2023-03-05T18:14:15.801Z,6.00
2023-03-05T18:16:44.733Z,6.10
2023-03-05T18:19:12.740Z,6.10
2023-03-05T18:21:41.948Z,6.00
2023-03-05T18:24:10.439Z,6.00
2023-03-05T18:26:38.310Z,6.00
2023-03-05T18:29:07.632Z,5.90
2023-03-05T18:31:35.686Z,5.90
2023-03-05T18:34:03.679Z,5.90
2023-03-05T18:36:34.246Z,5.80
2023-03-05T18:39:02.360Z,5.80
2023-03-05T18:41:31.102Z,5.80
2023-03-05T18:43:59.152Z,5.80
2023-03-05T18:46:28.599Z,5.80
2023-03-05T18:48:56.621Z,5.70
2023-03-05T18:51:25.743Z,5.50
2023-03-05T18:53:55.031Z,5.50
2023-03-05T18:56:23.267Z,5.50
2023-03-05T18:58:51.373Z,5.50
2023-03-05T19:01:19.978Z,5.40
2023-03-05T19:03:50.091Z,5.40
2023-03-05T19:06:18.591Z,5.30
2023-03-05T19:08:46.895Z,5.30
2023-03-05T19:11:16.694Z,5.40
2023-03-05T19:13:48.996Z,5.40
2023-03-05T19:16:19.040Z,5.30
2023-03-05T19:18:57.473Z,5.40
2023-03-05T19:21:25.458Z,5.40
2023-03-05T19:23:53.519Z,5.40
2023-03-05T19:26:21.390Z,5.50
2023-03-05T19:28:49.282Z,5.50
2023-03-05T19:31:17.183Z,5.50
2023-03-05T19:33:45.151Z,5.50
2023-03-05T19:36:14.418Z,5.50
2023-03-05T19:38:43.104Z,5.50
2023-03-05T19:41:12.866Z,5.50
2023-03-05T19:43:41.370Z,5.50
2023-03-05T19:46:10.146Z,5.40
2023-03-05T19:48:39.214Z,5.40
2023-03-05T19:51:10.045Z,5.30
2023-03-05T19:53:39.566Z,5.30
2023-03-05T19:56:08.603Z,5.30
2023-03-05T19:58:37.446Z,5.20
2023-03-05T20:01:10.398Z,5.20
2023-03-05T20:03:38.942Z,5.10
2023-03-05T20:06:07.320Z,5.00
2023-03-05T20:08:35.517Z,5.00
2023-03-05T20:11:04.965Z,5.00
2023-03-05T20:13:33.032Z,5.00
2023-03-05T20:16:01.103Z,5.00
2023-03-05T20:18:29.183Z,5.10
2023-03-05T20:21:01.648Z,5.20
2023-03-05T20:23:30.010Z,5.20
2023-03-05T20:25:58.103Z,5.20
2023-03-05T20:28:27.457Z,5.30
2023-03-05T20:30:55.984Z,5.20
2023-03-05T20:33:24.282Z,5.20
2023-03-05T20:35:53.235Z,5.20
2023-03-05T20:38:23.010Z,5.20
2023-03-05T20:40:52.965Z,5.20
2023-03-05T20:43:21.384Z,5.10
2023-03-05T20:45:51.074Z,5.10
2023-03-05T20:48:18.968Z,5.10
2023-03-05T20:50:47.680Z,5.10
2023-03-05T20:53:16.341Z,5.10
2023-03-05T20:55:44.450Z,5.10
2023-03-05T20:58:12.892Z,5.00
2023-03-05T21:00:41.739Z,5.00
2023-03-05T21:03:11.067Z,4.90
2023-03-05T21:05:39.040Z,4.90
2023-03-05T21:08:07.045Z,4.80
2023-03-05T21:10:34.917Z,4.80
2023-03-05T21:13:02.792Z,4.70
2023-03-05T21:15:31.960Z,4.70
2023-03-05T21:18:00.191Z,4.70
2023-03-05T21:20:31.008Z,4.70
2023-03-05T21:22:59.575Z,4.70
2023-03-05T21:25:29.020Z,4.70
2023-03-05T21:27:58.713Z,4.60
2023-03-05T21:30:31.405Z,4.60
2023-03-05T21:33:00.495Z,4.60
2023-03-05T21:35:32.500Z,4.50
2023-03-05T21:38:00.671Z,4.50
2023-03-05T21:40:29.222Z,4.40
2023-03-05T21:42:57.445Z,4.40
2023-03-05T21:45:28.297Z,4.40
2023-03-05T21:47:58.809Z,4.40
2023-03-05T21:50:28.692Z,4.30
2023-03-05T21:52:56.590Z,4.30
2023-03-05T21:55:32.197Z,4.40
2023-03-05T21:58:00.367Z,4.30
2023-03-05T22:00:29.200Z,4.40
2023-03-05T22:02:57.072Z,4.40
2023-03-05T22:05:24.947Z,4.30
2023-03-05T22:07:54.176Z,4.30
2023-03-05T22:10:22.262Z,4.30
2023-03-05T22:12:57.169Z,4.30
2023-03-05T22:15:25.062Z,4.40
2023-03-05T22:17:53.103Z,4.30
2023-03-05T22:20:21.258Z,4.30
2023-03-05T22:22:49.118Z,4.40
2023-03-05T22:25:18.913Z,4.30
2023-03-05T22:27:46.838Z,4.30
2023-03-05T22:30:15.296Z,4.20
2023-03-05T22:32:43.235Z,4.10
2023-03-05T22:35:13.387Z,4.10
2023-03-05T22:37:42.489Z,4.10
2023-03-05T22:40:14.333Z,4.10
2023-03-05T22:42:44.283Z,4.00
2023-03-05T22:45:13.276Z,4.00
2023-03-05T22:47:41.783Z,4.00
2023-03-05T22:50:10.954Z,4.10
2023-03-05T22:52:38.875Z,4.10
2023-03-05T22:55:07.534Z,4.10
2023-03-05T22:57:35.358Z,4.20
2023-03-05T23:00:07.808Z,4.20
2023-03-05T23:02:35.812Z,4.00
2023-03-05T23:05:03.773Z,3.90
2023-03-05T23:07:36.970Z,3.90
2023-03-05T23:10:09.328Z,4.00
2023-03-05T23:12:40.103Z,3.80
2023-03-05T23:15:13.757Z,3.80
2023-03-05T23:17:41.831Z,3.70
2023-03-05T23:20:11.590Z,3.80
2023-03-05T23:22:40.498Z,3.80
2023-03-05T23:25:09.132Z,3.80
2023-03-05T23:27:37.184Z,3.90
2023-03-05T23:30:16.412Z,3.90
2023-03-05T23:32:51.167Z,3.90
2023-03-05T23:35:21.573Z,4.00
2023-03-05T23:37:50.322Z,4.20
2023-03-05T23:40:20.989Z,4.30
2023-03-05T23:42:49.332Z,4.30
2023-03-05T23:45:19.698Z,4.30
2023-03-05T23:47:49.541Z,4.30
2023-03-05T23:50:19.811Z,4.50
2023-03-05T23:52:48.503Z,4.60
2023-03-05T23:55:20.254Z,4.60
2023-03-05T23:57:48.840Z,4.60
